Time;durP1;ratioP1;P1;durP2;ratioP2;P2;SDS_P1;SDS_P2;PMS_P1;PMS_P2;Temp;Humidity;BMP_temperature;BMP_pressure;BME280_temperature;BME280_humidity;BME280_pressure;Samples;Min_cycle;Max_cycle;Signal;HPM_P1;HPM_P2
2023/12/01 00:00:22;;;;;;;36.28;14.70;;;;;;;1.91;100.00;100363.09;4859745;29;20116;-75
2023/12/01 00:02:47;;;;;;;30.63;14.25;;;;;;;2.10;100.00;100368.19;4855048;29;20037;-78
2023/12/01 00:05:13;;;;;;;33.25;15.18;;;;;;;2.10;100.00;100365.41;4842364;29;20037;-78
2023/12/01 00:07:38;;;;;;;33.88;16.35;;;;;;;2.01;100.00;100368.22;4861608;29;20033;-78
2023/12/01 00:10:08;;;;;;;28.50;14.48;;;;;;;2.13;100.00;100370.28;4854464;29;20041;-77
2023/12/01 00:12:33;;;;;;;37.47;16.10;;;;;;;2.01;100.00;100367.44;4836836;29;20046;-76
2023/12/01 00:14:58;;;;;;;36.65;15.30;;;;;;;2.03;100.00;100367.91;4860136;29;20045;-77
2023/12/01 00:17:24;;;;;;;35.30;14.10;;;;;;;2.10;100.00;100370.94;4856831;29;20041;-76
2023/12/01 00:19:49;;;;;;;37.55;16.80;;;;;;;2.06;100.00;100372.75;4843961;29;20037;-77
2023/12/01 00:22:14;;;;;;;34.38;16.88;;;;;;;2.15;100.00;100378.22;4860827;29;20509;-76
2023/12/01 00:24:40;;;;;;;29.58;14.27;;;;;;;2.15;100.00;100375.47;4859538;29;20783;-76
2023/12/01 00:27:05;;;;;;;32.10;14.98;;;;;;;2.17;100.00;100371.25;4862178;29;20431;-76
2023/12/01 00:29:30;;;;;;;43.03;18.02;;;;;;;1.99;100.00;100375.22;4840335;29;20454;-76
2023/12/01 00:31:56;;;;;;;39.75;16.48;;;;;;;2.10;100.00;100375.66;4857203;29;20483;-76
2023/12/01 00:34:21;;;;;;;46.10;19.33;;;;;;;1.79;100.00;100371.25;4859966;29;20045;-77
2023/12/01 00:36:46;;;;;;;36.10;15.48;;;;;;;1.96;100.00;100376.72;4838707;29;20083;-77
2023/12/01 00:39:12;;;;;;;37.03;15.82;;;;;;;2.06;100.00;100380.22;4863398;29;20459;-76
2023/12/01 00:41:37;;;;;;;40.45;16.05;;;;;;;1.95;100.00;100380.59;4865611;29;20030;-76
2023/12/01 00:44:03;;;;;;;37.25;16.45;;;;;;;1.93;100.00;100380.13;4859381;29;20041;-76
2023/12/01 00:46:29;;;;;;;42.05;17.10;;;;;;;1.99;100.00;100378.00;4858809;29;22037;-76
2023/12/01 00:48:54;;;;;;;44.53;16.27;;;;;;;2.08;100.00;100383.47;4858537;29;20045;-76
2023/12/01 00:51:20;;;;;;;45.55;16.70;;;;;;;2.08;100.00;100380.72;4859296;29;20045;-76
2023/12/01 00:53:48;;;;;;;41.20;16.65;;;;;;;2.06;100.00;100375.50;4862824;29;20037;-76
2023/12/01 00:56:14;;;;;;;40.63;16.73;;;;;;;2.10;100.00;100381.19;4848107;29;20037;-76
2023/12/01 00:58:39;;;;;;;40.17;17.15;;;;;;;1.91;100.00;100384.34;4844211;29;20407;-76
2023/12/01 01:01:06;;;;;;;36.22;16.13;;;;;;;2.11;100.00;100380.84;4842801;29;20152;-76
2023/12/01 01:03:32;;;;;;;36.78;15.45;;;;;;;2.07;100.00;100379.06;4841748;29;20033;-76
2023/12/01 01:05:58;;;;;;;43.40;19.45;;;;;;;2.11;100.00;100383.63;4860521;29;20086;-76
2023/12/01 01:08:23;;;;;;;42.72;15.32;;;;;;;2.15;100.00;100381.81;4841548;29;20116;-76
2023/12/01 01:10:48;;;;;;;40.40;16.75;;;;;;;2.15;100.00;100384.56;4855095;29;20146;-76
2023/12/01 01:13:14;;;;;;;41.05;16.00;;;;;;;2.14;100.00;100393.97;4855788;29;20412;-76
2023/12/01 01:15:39;;;;;;;32.58;14.52;;;;;;;2.17;100.00;100398.84;4852854;29;20037;-75
2023/12/01 01:18:06;;;;;;;37.42;16.10;;;;;;;2.16;100.00;100390.91;4856890;29;20048;-78
2023/12/01 01:20:32;;;;;;;38.42;14.80;;;;;;;2.17;100.00;100390.56;4839897;29;20033;-77
2023/12/01 01:22:57;;;;;;;37.53;15.20;;;;;;;2.15;100.00;100400.31;4841078;29;20093;-77
2023/12/01 01:25:22;;;;;;;36.13;13.80;;;;;;;2.19;100.00;100396.56;4853522;29;20577;-76
2023/12/01 01:27:49;;;;;;;34.78;14.60;;;;;;;2.22;100.00;100401.41;4854870;29;20037;-76
2023/12/01 01:30:14;;;;;;;34.42;14.32;;;;;;;2.22;100.00;100401.41;4858939;29;20499;-76
2023/12/01 01:32:40;;;;;;;40.83;16.10;;;;;;;2.19;100.00;100401.25;4855648;29;20061;-76
2023/12/01 01:35:05;;;;;;;36.85;14.35;;;;;;;2.05;100.00;100398.75;4856212;29;20086;-76
2023/12/01 01:37:31;;;;;;;31.10;13.55;;;;;;;2.14;100.00;100405.03;4852769;29;20057;-76
2023/12/01 01:39:56;;;;;;;32.58;13.70;;;;;;;2.17;100.00;100407.13;4861506;29;20041;-76
2023/12/01 01:42:21;;;;;;;38.85;13.98;;;;;;;2.12;100.00;100404.56;4838801;29;20033;-76
2023/12/01 01:44:47;;;;;;;37.80;15.75;;;;;;;2.19;100.00;100410.38;4855037;29;20037;-76
2023/12/01 01:47:13;;;;;;;40.35;15.27;;;;;;;2.16;100.00;100408.25;4855192;29;20076;-76
2023/12/01 01:49:39;;;;;;;41.53;16.10;;;;;;;2.18;100.00;100419.78;4838879;29;20064;-76
2023/12/01 01:52:05;;;;;;;34.65;14.60;;;;;;;2.20;100.00;100423.03;4845824;29;20056;-76
2023/12/01 01:54:30;;;;;;;41.45;13.55;;;;;;;2.17;100.00;100432.00;4855944;29;23335;-76
2023/12/01 01:56:57;;;;;;;35.05;14.98;;;;;;;2.14;100.00;100424.34;4842810;29;20036;-76
2023/12/01 01:59:23;;;;;;;41.53;15.32;;;;;;;2.16;100.00;100429.56;4853735;29;20045;-75
2023/12/01 02:01:49;;;;;;;42.38;14.48;;;;;;;2.16;100.00;100427.59;4859640;29;20400;-76
2023/12/01 02:04:16;;;;;;;39.47;17.15;;;;;;;2.15;100.00;100433.44;4852027;29;20494;-76
2023/12/01 02:06:41;;;;;;;31.45;13.05;;;;;;;2.07;100.00;100440.63;4856141;29;20043;-76
2023/12/01 02:09:07;;;;;;;37.55;14.70;;;;;;;2.09;100.00;100429.25;4856972;29;20116;-76
2023/12/01 02:11:33;;;;;;;37.33;14.27;;;;;;;1.98;100.00;100435.16;4851791;29;20703;-76
2023/12/01 02:14:02;;;;;;;31.05;13.77;;;;;;;2.07;100.00;100440.63;4854415;29;20048;-75
2023/12/01 02:16:28;;;;;;;41.63;16.30;;;;;;;2.05;100.00;100439.34;4855346;29;20037;-75
2023/12/01 02:18:54;;;;;;;44.22;15.93;;;;;;;1.63;100.00;100434.44;4855687;29;20105;-76
2023/12/01 02:21:26;;;;;;;30.65;12.95;;;;;;;1.93;100.00;100438.09;4855546;29;20378;-76
2023/12/01 02:23:53;;;;;;;28.33;12.93;;;;;;;1.80;100.00;100439.91;4856199;29;20391;-75
2023/12/01 02:26:18;;;;;;;39.13;16.42;;;;;;;2.03;100.00;100447.97;4856402;29;20053;-75
2023/12/01 02:28:43;;;;;;;34.25;16.10;;;;;;;2.09;100.00;100446.63;4853478;29;20037;-76
2023/12/01 02:31:09;;;;;;;33.10;13.15;;;;;;;2.07;100.00;100448.94;4841053;29;20039;-76
2023/12/01 02:33:35;;;;;;;35.13;14.77;;;;;;;1.61;100.00;100458.78;4848981;29;20409;-76
2023/12/01 02:36:01;;;;;;;30.92;12.98;;;;;;;1.78;100.00;100450.47;4852020;29;20037;-76
2023/12/01 02:38:26;;;;;;;45.42;15.65;;;;;;;1.75;100.00;100453.91;4849109;29;20400;-76
2023/12/01 02:40:51;;;;;;;39.53;15.23;;;;;;;1.66;100.00;100455.84;4845490;29;20029;-76
2023/12/01 02:43:18;;;;;;;38.47;14.32;;;;;;;1.54;100.00;100452.94;4853063;29;20044;-75
2023/12/01 02:45:44;;;;;;;35.90;13.82;;;;;;;1.87;100.00;100453.19;4831454;29;20552;-76
2023/12/01 02:48:10;;;;;;;34.05;14.60;;;;;;;1.95;100.00;100459.84;4845562;29;20068;-76
2023/12/01 02:50:36;;;;;;;40.40;17.50;;;;;;;1.85;100.00;100463.75;4834507;29;20042;-75
2023/12/01 02:53:02;;;;;;;38.90;15.15;;;;;;;1.80;100.00;100450.94;4832295;29;20126;-75
2023/12/01 02:55:28;;;;;;;34.97;14.55;;;;;;;1.79;100.00;100454.88;4829603;29;20026;-75
2023/12/01 02:57:54;;;;;;;52.42;16.33;;;;;;;1.90;100.00;100454.47;4830959;29;20523;-75
2023/12/01 03:00:20;;;;;;;41.42;14.38;;;;;;;2.02;100.00;100457.38;4832459;29;20476;-75
2023/12/01 03:02:46;;;;;;;42.53;15.32;;;;;;;1.79;100.00;100454.88;4829573;29;20038;-75
2023/12/01 03:05:12;;;;;;;48.78;18.35;;;;;;;1.55;100.00;100455.38;4835692;29;20654;-75
2023/12/01 03:07:38;;;;;;;41.03;15.38;;;;;;;1.31;100.00;100457.88;4834661;29;20033;-77
2023/12/01 03:10:05;;;;;;;41.20;13.82;;;;;;;1.58;100.00;100456.69;4838206;29;20125;-77
2023/12/01 03:12:30;;;;;;;36.10;14.48;;;;;;;1.54;100.00;100458.47;4836298;29;20556;-76
2023/12/01 03:14:58;;;;;;;38.67;14.02;;;;;;;1.59;100.00;100456.34;4840786;29;20038;-77
2023/12/01 03:17:24;;;;;;;40.90;14.00;;;;;;;1.68;100.00;100459.09;4835546;29;20042;-77
2023/12/01 03:19:51;;;;;;;38.40;13.38;;;;;;;1.70;100.00;100459.56;4836105;29;20045;-77
2023/12/01 03:22:17;;;;;;;36.72;14.35;;;;;;;1.68;100.00;100456.34;4837675;29;20026;-77
2023/12/01 03:24:43;;;;;;;36.40;14.48;;;;;;;1.79;100.00;100460.38;4838686;29;20178;-76
2023/12/01 03:27:08;;;;;;;37.97;16.05;;;;;;;1.64;100.00;100463.66;4839772;29;20215;-76
2023/12/01 03:29:38;;;;;;;32.15;14.07;;;;;;;1.63;100.00;100467.56;4841160;29;20060;-76
2023/12/01 03:32:04;;;;;;;35.42;11.80;;;;;;;1.58;100.00;100465.78;4846194;29;20855;-76
2023/12/01 03:34:30;;;;;;;36.35;12.60;;;;;;;1.54;100.00;100458.47;4839914;29;20045;-76
2023/12/01 03:36:55;;;;;;;27.05;11.27;;;;;;;1.42;100.00;100462.72;4841770;29;20113;-76
2023/12/01 03:39:21;;;;;;;28.73;12.02;;;;;;;1.51;100.00;100464.66;4841587;29;20108;-76
2023/12/01 03:41:49;;;;;;;36.67;13.68;;;;;;;1.33;100.00;100470.19;4842306;29;20195;-76
2023/12/01 03:44:15;;;;;;;31.33;12.18;;;;;;;1.71;100.00;100465.91;4840735;29;20038;-76
2023/12/01 03:46:41;;;;;;;31.13;12.50;;;;;;;1.72;100.00;100471.09;4843081;29;20481;-76
2023/12/01 03:49:06;;;;;;;36.75;13.02;;;;;;;1.65;100.00;100476.31;4840044;29;20037;-76
2023/12/01 03:51:31;;;;;;;29.30;10.82;;;;;;;1.22;100.00;100477.16;4856246;29;20408;-76
2023/12/01 03:53:57;;;;;;;30.50;11.52;;;;;;;1.49;100.00;100481.53;4862559;29;20772;-76
2023/12/01 03:56:23;;;;;;;35.80;12.00;;;;;;;1.64;100.00;100480.19;4858157;29;20040;-77
2023/12/01 03:58:54;;;;;;;28.95;12.52;;;;;;;1.68;100.00;100480.38;4841608;29;20040;-76
2023/12/01 04:01:19;;;;;;;29.13;10.75;;;;;;;1.80;100.00;100483.25;4857369;29;20041;-76
2023/12/01 04:03:44;;;;;;;31.20;10.60;;;;;;;1.38;100.00;100483.81;4855509;29;20041;-76
2023/12/01 04:06:10;;;;;;;29.77;11.48;;;;;;;1.67;100.00;100482.31;4843772;29;20737;-76
2023/12/01 04:08:35;;;;;;;27.80;10.63;;;;;;;1.61;100.00;100486.38;4859294;29;20390;-76
2023/12/01 04:11:01;;;;;;;37.58;12.93;;;;;;;1.38;100.00;100489.31;4840095;29;20044;-76
2023/12/01 04:13:27;;;;;;;31.33;12.07;;;;;;;1.37;100.00;100498.75;4857627;29;20551;-76
2023/12/01 04:15:52;;;;;;;25.83;10.43;;;;;;;1.25;100.00;100506.84;4855237;29;20045;-76
2023/12/01 04:18:18;;;;;;;27.55;9.02;;;;;;;1.06;100.00;100509.13;4851487;29;20033;-74
2023/12/01 04:20:43;;;;;;;31.77;11.48;;;;;;;1.17;100.00;100500.19;4861144;29;20079;-75
2023/12/01 04:23:10;;;;;;;29.67;10.93;;;;;;;1.43;100.00;100510.41;4863768;29;20045;-75
2023/12/01 04:25:40;;;;;;;26.15;11.25;;;;;;;1.64;100.00;100513.31;4858274;29;20036;-73
2023/12/01 04:28:07;;;;;;;27.20;10.10;;;;;;;1.51;100.00;100515.09;4862219;29;20048;-74
2023/12/01 04:30:34;;;;;;;28.15;10.05;;;;;;;1.45;100.00;100510.09;4856459;29;20037;-75
2023/12/01 04:33:00;;;;;;;39.10;12.02;;;;;;;1.66;100.00;100510.22;4857743;29;22804;-74
2023/12/01 04:35:27;;;;;;;25.00;9.70;;;;;;;1.27;100.00;100518.38;4859266;29;20127;-73
2023/12/01 04:37:54;;;;;;;26.98;9.63;;;;;;;1.38;100.00;100516.09;4856845;29;20033;-75
2023/12/01 04:40:19;;;;;;;29.27;11.43;;;;;;;1.36;100.00;100524.69;4859482;29;20041;-74
2023/12/01 04:42:49;;;;;;;29.02;10.65;;;;;;;1.55;100.00;100518.03;4856986;29;20056;-75
2023/12/01 04:45:16;;;;;;;25.17;9.30;;;;;;;1.58;100.00;100520.97;4857876;29;20512;-74
2023/12/01 04:47:43;;;;;;;22.20;9.90;;;;;;;1.71;100.00;100519.16;4858005;29;20049;-73
2023/12/01 04:50:14;;;;;;;23.15;10.10;;;;;;;1.48;100.00;100524.03;4858040;29;20132;-74
2023/12/01 04:52:43;;;;;;;20.40;9.10;;;;;;;1.47;100.00;100536.19;4859014;29;20033;-74
2023/12/01 04:55:14;;;;;;;28.15;12.25;;;;;;;1.57;100.00;100535.88;4855151;29;20878;-74
2023/12/01 04:57:40;;;;;;;30.08;11.82;;;;;;;1.16;100.00;100537.19;4853249;29;20902;-75
2023/12/01 05:00:19;;;;;;;20.55;8.35;;;;;;;1.15;100.00;100535.53;4854632;29;20484;-75
2023/12/01 05:02:52;;;;;;;26.67;9.90;;;;;;;1.33;100.00;100546.56;4857697;29;21159;-76
2023/12/01 05:05:21;;;;;;;22.35;8.90;;;;;;;1.07;100.00;100543.81;4854845;29;20037;-75
2023/12/01 05:07:49;;;;;;;27.42;9.93;;;;;;;1.00;100.00;100545.09;4855810;29;20102;-74
2023/12/01 05:10:16;;;;;;;22.17;9.98;;;;;;;1.29;100.00;100551.13;4853653;29;20033;-74
2023/12/01 05:12:43;;;;;;;18.80;9.80;;;;;;;1.35;100.00;100556.16;4843564;29;20032;-74
2023/12/01 05:15:15;;;;;;;23.95;9.30;;;;;;;1.15;100.00;100559.53;4843267;29;20085;-73
2023/12/01 05:17:45;;;;;;;22.50;8.35;;;;;;;1.25;100.00;100558.44;4840526;29;20046;-74
2023/12/01 05:20:15;;;;;;;20.75;8.65;;;;;;;1.11;100.00;100564.06;4854000;29;20059;-74
2023/12/01 05:22:51;;;;;;;23.75;9.40;;;;;;;1.20;100.00;100560.22;4855022;29;20038;-74
2023/12/01 05:25:18;;;;;;;20.50;9.93;;;;;;;0.94;100.00;100568.41;4841441;29;20029;-74
2023/12/01 05:27:47;;;;;;;24.17;8.70;;;;;;;0.98;100.00;100569.41;4856166;29;20030;-76
2023/12/01 05:30:14;;;;;;;16.23;8.77;;;;;;;0.77;100.00;100563.66;4841166;29;20121;-76
2023/12/01 05:32:41;;;;;;;19.80;9.05;;;;;;;0.91;100.00;100563.56;4855574;29;20025;-78
2023/12/01 05:35:10;;;;;;;21.50;9.18;;;;;;;0.95;100.00;100575.56;4859430;29;20042;-76
2023/12/01 05:37:50;;;;;;;17.20;7.53;;;;;;;0.88;100.00;100575.19;4854353;29;20037;-77
2023/12/01 05:40:39;;;;;;;20.60;8.70;;;;;;;0.93;100.00;100579.78;4859419;29;20097;-77
2023/12/01 05:43:05;;;;;;;21.17;8.77;;;;;;;0.94;100.00;100590.47;4857996;29;20048;-77
2023/12/01 05:45:33;;;;;;;20.13;9.20;;;;;;;1.13;100.00;100581.09;4852316;29;20065;-77
2023/12/01 05:47:59;;;;;;;19.63;8.10;;;;;;;1.35;100.00;100583.75;4853298;29;20523;-77
2023/12/01 05:50:30;;;;;;;21.52;8.30;;;;;;;1.35;100.00;100593.94;4862898;29;20041;-77
2023/12/01 05:52:57;;;;;;;20.33;8.52;;;;;;;1.21;100.00;100585.81;4841828;29;20157;-77
2023/12/01 05:55:28;;;;;;;15.35;7.80;;;;;;;1.15;100.00;100584.34;4841537;29;20032;-76
2023/12/01 05:57:56;;;;;;;17.65;8.23;;;;;;;1.05;100.00;100584.66;4857517;29;20135;-77
2023/12/01 06:00:26;;;;;;;19.17;8.50;;;;;;;1.11;100.00;100588.88;4854957;29;20040;-77
2023/12/01 06:02:52;;;;;;;20.52;8.93;;;;;;;1.16;100.00;100597.00;4853564;29;20502;-76
2023/12/01 06:05:20;;;;;;;18.42;7.30;;;;;;;1.18;100.00;100600.25;4845681;29;20029;-78
2023/12/01 06:07:49;;;;;;;24.13;9.23;;;;;;;0.84;100.00;100604.53;4854374;29;20491;-78
2023/12/01 06:10:16;;;;;;;19.90;8.93;;;;;;;0.94;100.00;100595.16;4835822;29;20037;-78
2023/12/01 06:12:41;;;;;;;20.33;8.18;;;;;;;0.77;100.00;100590.41;4853124;29;20030;-78
2023/12/01 06:15:12;;;;;;;18.23;8.50;;;;;;;1.15;100.00;100595.38;4852302;29;20041;-77
2023/12/01 06:17:42;;;;;;;19.30;8.57;;;;;;;1.21;100.00;100599.63;4848070;29;20029;-77
2023/12/01 06:20:18;;;;;;;16.55;7.80;;;;;;;0.88;100.00;100596.44;4852440;29;20029;-77
2023/12/01 06:22:51;;;;;;;15.20;7.82;;;;;;;0.97;100.00;100595.34;4849140;29;20044;-77
2023/12/01 06:25:26;;;;;;;18.75;7.90;;;;;;;0.95;100.00;100602.28;4850740;29;20451;-77
2023/12/01 06:27:53;;;;;;;20.08;11.30;;;;;;;0.89;100.00;100598.88;4845311;29;22680;-76
2023/12/01 06:30:18;;;;;;;16.45;8.48;;;;;;;1.05;100.00;100607.50;4851545;29;20400;-76
2023/12/01 06:32:45;;;;;;;21.00;9.65;;;;;;;0.96;100.00;100618.50;4853144;29;20033;-76
2023/12/01 06:35:15;;;;;;;21.65;8.85;;;;;;;1.04;100.00;100616.13;4851235;29;20133;-76
2023/12/01 06:37:42;;;;;;;18.42;8.40;;;;;;;1.07;100.00;100615.47;4853806;29;20076;-74
2023/12/01 06:40:12;;;;;;;19.95;9.98;;;;;;;1.15;100.00;100614.69;4852986;29;20507;-74
2023/12/01 06:42:42;;;;;;;19.15;8.77;;;;;;;1.18;100.00;100622.28;4836765;29;20392;-73
2023/12/01 06:45:15;;;;;;;18.80;8.50;;;;;;;0.90;100.00;100622.53;4849472;29;20117;-74
2023/12/01 06:47:43;;;;;;;17.52;8.18;;;;;;;1.08;100.00;100622.63;4845224;29;20076;-74
2023/12/01 06:50:14;;;;;;;17.33;8.65;;;;;;;1.16;100.00;100630.06;4851051;29;20118;-73
2023/12/01 06:52:43;;;;;;;16.63;8.07;;;;;;;0.90;100.00;100630.81;4850437;29;20484;-73
2023/12/01 06:55:08;;;;;;;18.55;9.38;;;;;;;0.84;100.00;100629.31;4853193;29;20037;-73
2023/12/01 06:57:38;;;;;;;18.25;8.77;;;;;;;1.02;100.00;100628.25;4850919;29;20096;-75
2023/12/01 07:00:08;;;;;;;18.05;9.00;;;;;;;1.07;100.00;100632.00;4849542;29;20802;-75
2023/12/01 07:02:37;;;;;;;20.77;8.02;;;;;;;1.16;100.00;100635.59;4846108;29;20193;-74
2023/12/01 07:05:03;;;;;;;16.25;7.38;;;;;;;1.41;100.00;100632.09;4847612;29;20037;-74
2023/12/01 07:07:30;;;;;;;20.50;8.65;;;;;;;1.35;100.00;100644.41;4849905;29;20415;-73
2023/12/01 07:09:57;;;;;;;16.40;8.43;;;;;;;1.29;100.00;100642.94;4835495;29;20040;-76
2023/12/01 07:12:22;;;;;;;16.38;8.02;;;;;;;1.20;100.00;100645.69;4848993;29;20575;-76
2023/12/01 07:14:48;;;;;;;17.02;8.07;;;;;;;1.17;100.00;100659.28;4851520;29;20037;-75
2023/12/01 07:17:14;;;;;;;22.38;9.80;;;;;;;1.16;100.00;100660.41;4851567;29;20044;-74
2023/12/01 07:19:39;;;;;;;19.75;8.73;;;;;;;1.13;100.00;100664.63;4848110;29;20251;-74
2023/12/01 07:22:05;;;;;;;20.33;10.15;;;;;;;1.16;100.00;100658.47;4853908;29;20035;-74
2023/12/01 07:24:30;;;;;;;20.25;8.63;;;;;;;0.87;100.00;100655.47;4859493;29;20057;-74
2023/12/01 07:26:55;;;;;;;23.30;10.18;;;;;;;0.84;100.00;100659.63;4838096;29;20034;-74
2023/12/01 07:29:21;;;;;;;19.83;9.15;;;;;;;0.84;100.00;100662.41;4854114;29;20053;-76
2023/12/01 07:31:46;;;;;;;16.70;8.52;;;;;;;0.73;100.00;100666.56;4847315;29;20029;-76
2023/12/01 07:34:11;;;;;;;16.60;8.05;;;;;;;0.69;100.00;100660.88;4834641;29;20140;-76
2023/12/01 07:36:40;;;;;;;21.73;8.98;;;;;;;0.74;100.00;100665.44;4850283;29;20093;-75
2023/12/01 07:39:06;;;;;;;19.60;8.25;;;;;;;0.78;100.00;100675.50;4849721;29;20029;-73
2023/12/01 07:41:34;;;;;;;21.90;9.82;;;;;;;0.84;100.00;100667.91;4850808;29;20116;-75
2023/12/01 07:43:59;;;;;;;18.60;8.25;;;;;;;0.77;100.00;100667.56;4834565;29;20847;-73
2023/12/01 07:46:25;;;;;;;20.33;9.43;;;;;;;0.76;100.00;100676.94;4853361;29;20037;-77
2023/12/01 07:48:50;;;;;;;21.52;9.02;;;;;;;0.90;100.00;100676.84;4853447;29;20049;-77
2023/12/01 07:51:18;;;;;;;21.27;9.18;;;;;;;0.71;100.00;100680.66;4852925;29;20448;-76
2023/12/01 07:53:44;;;;;;;19.85;8.25;;;;;;;0.72;100.00;100676.78;4852544;29;20124;-77
2023/12/01 07:56:11;;;;;;;20.30;8.98;;;;;;;0.66;100.00;100688.25;4853378;29;20499;-78
2023/12/01 07:58:37;;;;;;;18.48;8.98;;;;;;;0.73;100.00;100694.91;4854091;29;20491;-77
2023/12/01 08:01:03;;;;;;;21.83;10.85;;;;;;;0.78;100.00;100683.78;4852881;29;20117;-77
2023/12/01 08:03:28;;;;;;;19.10;8.10;;;;;;;0.76;100.00;100687.97;4851530;29;20041;-78
2023/12/01 08:05:54;;;;;;;18.65;8.15;;;;;;;0.83;100.00;100684.78;4852843;29;20038;-77
2023/12/01 08:08:20;;;;;;;20.95;10.15;;;;;;;0.82;100.00;100686.69;4852134;29;20040;-77
2023/12/01 08:10:45;;;;;;;22.70;9.70;;;;;;;0.54;100.00;100686.88;4854380;29;20484;-76
2023/12/01 08:13:10;;;;;;;21.83;9.52;;;;;;;0.69;100.00;100698.63;4857592;29;20030;-77
2023/12/01 08:15:36;;;;;;;25.45;9.68;;;;;;;0.67;100.00;100690.66;4855347;29;20434;-77
2023/12/01 08:18:01;;;;;;;20.85;9.88;;;;;;;0.75;100.00;100692.66;4854556;29;20112;-77
2023/12/01 08:20:29;;;;;;;18.90;9.63;;;;;;;0.73;100.00;100694.13;4855274;29;20045;-78
2023/12/01 08:22:54;;;;;;;17.02;8.48;;;;;;;0.79;100.00;100698.38;4852922;29;20025;-77
2023/12/01 08:25:22;;;;;;;18.27;7.72;;;;;;;0.59;100.00;100699.69;4854086;29;20041;-77
2023/12/01 08:27:47;;;;;;;22.05;8.27;;;;;;;0.52;100.00;100700.16;4852618;29;20036;-77
2023/12/01 08:30:13;;;;;;;19.42;8.75;;;;;;;0.63;100.00;100705.41;4854867;29;20093;-77
2023/12/01 08:32:38;;;;;;;22.23;8.55;;;;;;;0.63;100.00;100702.63;4852565;29;20034;-77
2023/12/01 08:35:04;;;;;;;21.15;7.30;;;;;;;0.66;100.00;100696.53;4854962;29;20049;-77
2023/12/01 08:37:30;;;;;;;22.02;9.52;;;;;;;0.64;100.00;100696.03;4855677;29;20488;-76
2023/12/01 08:39:55;;;;;;;22.98;8.48;;;;;;;0.67;100.00;100700.88;4840860;29;20045;-76
2023/12/01 08:42:20;;;;;;;21.00;8.93;;;;;;;0.52;100.00;100704.84;4852691;29;20149;-77
2023/12/01 08:44:46;;;;;;;16.00;8.45;;;;;;;0.73;100.00;100716.97;4838651;29;20128;-78
2023/12/01 08:47:13;;;;;;;22.35;8.98;;;;;;;0.46;100.00;100711.59;4855463;29;20052;-77
2023/12/01 08:49:39;;;;;;;20.40;9.30;;;;;;;0.49;100.00;100711.00;4836912;29;20033;-77
2023/12/01 08:52:06;;;;;;;17.95;8.23;;;;;;;0.63;100.00;100710.91;4855278;29;20056;-77
2023/12/01 08:54:31;;;;;;;18.80;8.80;;;;;;;0.59;100.00;100711.56;4853531;29;20098;-77
2023/12/01 08:56:58;;;;;;;20.08;10.02;;;;;;;0.52;100.00;100713.09;4855162;29;20037;-76
2023/12/01 08:59:24;;;;;;;18.42;7.38;;;;;;;0.74;100.00;100718.59;4851534;29;20395;-76
2023/12/01 09:01:49;;;;;;;25.58;9.68;;;;;;;0.37;100.00;100719.81;4854870;29;20025;-76
2023/12/01 09:04:14;;;;;;;19.55;8.25;;;;;;;0.39;100.00;100728.56;4851799;29;20037;-76
2023/12/01 09:06:40;;;;;;;24.23;8.90;;;;;;;0.47;100.00;100730.56;4853218;29;20041;-76
2023/12/01 09:09:05;;;;;;;20.73;8.30;;;;;;;0.34;100.00;100725.97;4855762;29;20034;-76
2023/12/01 09:11:31;;;;;;;16.25;8.00;;;;;;;0.33;100.00;100729.81;4852629;29;20037;-76
2023/12/01 09:13:56;;;;;;;30.30;10.60;;;;;;;0.42;100.00;100724.38;4853344;29;20033;-77
2023/12/01 09:16:23;;;;;;;21.00;8.65;;;;;;;0.34;100.00;100732.28;4852771;29;20033;-75
2023/12/01 09:18:49;;;;;;;21.17;8.93;;;;;;;0.38;100.00;100726.94;4835758;29;20480;-76
2023/12/01 09:21:14;;;;;;;21.75;9.05;;;;;;;0.44;100.00;100722.13;4853474;29;20040;-76
2023/12/01 09:23:40;;;;;;;17.98;9.20;;;;;;;0.07;100.00;100722.19;4837192;29;20147;-76
2023/12/01 09:26:06;;;;;;;16.65;7.75;;;;;;;0.33;100.00;100727.06;4854607;29;20038;-76
2023/12/01 09:28:32;;;;;;;21.20;9.18;;;;;;;0.38;100.00;100725.00;4853592;29;20080;-77
2023/12/01 09:30:58;;;;;;;25.42;9.55;;;;;;;0.27;100.00;100720.06;4854773;29;20492;-76
2023/12/01 09:33:23;;;;;;;23.05;8.60;;;;;;;0.56;100.00;100734.19;4853980;29;20033;-76
2023/12/01 09:35:48;;;;;;;22.52;9.30;;;;;;;0.46;100.00;100734.44;4854857;29;20036;-75
2023/12/01 09:38:14;;;;;;;21.92;10.13;;;;;;;0.45;100.00;100738.34;4838097;29;20127;-76
2023/12/01 09:40:43;;;;;;;22.65;10.13;;;;;;;0.46;100.00;100745.47;4854082;29;20044;-76
2023/12/01 09:43:11;;;;;;;20.08;9.82;;;;;;;0.52;100.00;100740.66;4853782;29;20424;-76
2023/12/01 09:45:37;;;;;;;23.25;9.35;;;;;;;0.67;100.00;100753.22;4852999;29;20204;-78
2023/12/01 09:48:05;;;;;;;22.70;9.93;;;;;;;0.48;100.00;100743.22;4851138;29;20099;-78
2023/12/01 09:50:31;;;;;;;19.08;9.05;;;;;;;0.60;100.00;100745.41;4850805;29;20415;-78
2023/12/01 09:52:56;;;;;;;23.15;9.63;;;;;;;0.59;100.00;100754.78;4853360;29;20070;-78
2023/12/01 09:55:22;;;;;;;21.00;9.20;;;;;;;0.51;100.00;100761.06;4854289;29;20029;-77
2023/12/01 09:57:48;;;;;;;22.48;9.00;;;;;;;0.38;100.00;100759.97;4849003;29;20037;-77
2023/12/01 10:00:15;;;;;;;22.70;9.77;;;;;;;0.53;100.00;100761.56;4851976;29;20423;-78
2023/12/01 10:02:41;;;;;;;23.35;9.48;;;;;;;0.01;100.00;100755.63;4851691;29;20030;-78
2023/12/01 10:05:07;;;;;;;20.20;8.60;;;;;;;0.23;100.00;100761.16;4851413;29;20479;-77
2023/12/01 10:07:34;;;;;;;26.92;9.38;;;;;;;0.41;100.00;100759.38;4855004;29;20093;-76
2023/12/01 10:09:59;;;;;;;22.13;10.52;;;;;;;0.43;100.00;100773.63;4852482;29;20044;-73
2023/12/01 10:12:24;;;;;;;30.90;11.45;;;;;;;0.49;100.00;100768.84;4853907;29;20037;-74
2023/12/01 10:14:50;;;;;;;21.75;10.20;;;;;;;0.52;100.00;100762.69;4852568;29;20507;-75
2023/12/01 10:17:23;;;;;;;23.48;10.60;;;;;;;0.68;100.00;100769.44;4853826;29;20040;-75
2023/12/01 10:19:48;;;;;;;18.63;8.20;;;;;;;0.58;100.00;100770.50;4834619;29;20037;-75
2023/12/01 10:22:17;;;;;;;25.52;10.52;;;;;;;0.59;100.00;100761.13;4851742;29;20400;-74
2023/12/01 10:24:56;;;;;;;23.75;9.43;;;;;;;0.60;100.00;100770.19;4851166;29;20033;-75
2023/12/01 10:27:22;;;;;;;24.02;10.23;;;;;;;0.60;100.00;100771.00;4853574;29;20033;-73
2023/12/01 10:29:48;;;;;;;19.98;10.73;;;;;;;0.63;100.00;100771.50;4850841;29;20396;-76
2023/12/01 10:32:14;;;;;;;24.08;10.93;;;;;;;0.55;100.00;100771.16;4853565;29;20038;-76
2023/12/01 10:34:46;;;;;;;26.00;10.80;;;;;;;0.55;100.00;100765.63;4853260;29;21253;-75
2023/12/01 10:37:11;;;;;;;26.35;11.60;;;;;;;0.65;100.00;100769.25;4836997;29;20069;-74
2023/12/01 10:39:38;;;;;;;27.80;12.18;;;;;;;0.46;100.00;100778.50;4852879;29;20033;-75
2023/12/01 10:42:05;;;;;;;24.70;11.55;;;;;;;0.41;100.00;100770.38;4837931;29;20080;-77
2023/12/01 10:44:31;;;;;;;27.27;11.18;;;;;;;0.76;100.00;100768.69;4852267;29;20030;-73
2023/12/01 10:46:57;;;;;;;27.92;11.88;;;;;;;0.77;100.00;100772.25;4831793;29;20041;-74
2023/12/01 10:49:23;;;;;;;38.15;14.32;;;;;;;0.64;100.00;100775.91;4849849;29;20041;-76
2023/12/01 10:51:53;;;;;;;30.05;12.20;;;;;;;0.57;100.00;100777.16;4854182;29;20116;-76
2023/12/01 10:54:23;;;;;;;27.73;11.98;;;;;;;0.69;100.00;100760.03;4850870;29;20389;-75
2023/12/01 10:56:58;;;;;;;31.02;12.82;;;;;;;0.38;100.00;100762.72;4835315;29;20041;-75
2023/12/01 10:59:26;;;;;;;31.23;11.45;;;;;;;0.47;100.00;100752.63;4850999;29;20030;-76
2023/12/01 11:01:53;;;;;;;22.77;11.18;;;;;;;0.45;100.00;100759.56;4850195;29;20488;-77
2023/12/01 11:04:26;;;;;;;27.55;10.38;;;;;;;0.51;100.00;100759.13;4834651;29;20110;-78
2023/12/01 11:07:04;;;;;;;30.52;11.95;;;;;;;0.56;100.00;100761.75;4854695;29;20080;-75
2023/12/01 11:09:48;;;;;;;25.15;11.80;;;;;;;0.34;100.00;100759.00;4851688;29;20499;-75